createdAt,value
2017-01-29T00:00:08.081Z,-2.84
2017-01-29T00:01:07.659Z,-2.98
2017-01-29T00:02:07.308Z,-2.95
2017-01-29T00:03:07.905Z,-2.87
2017-01-29T00:04:07.425Z,-2.97
2017-01-29T00:05:08.020Z,-3.18
2017-01-29T00:06:07.553Z,-3.30
2017-01-29T00:07:08.090Z,-3.41
2017-01-29T00:08:07.690Z,-3.39
2017-01-29T00:09:07.443Z,-3.26
2017-01-29T00:10:08.018Z,-3.45
2017-01-29T00:11:07.834Z,-3.48
2017-01-29T00:12:07.309Z,-3.32
2017-01-29T00:13:07.822Z,-3.26
2017-01-29T00:14:07.325Z,-3.35
2017-01-29T00:15:07.635Z,-3.56
2017-01-29T00:16:07.385Z,-3.33
2017-01-29T00:17:07.998Z,-3.29
2017-01-29T00:18:07.641Z,-3.30
2017-01-29T00:19:07.247Z,-3.37
2017-01-29T00:20:08.116Z,-3.19
2017-01-29T00:21:07.596Z,-3.15
2017-01-29T00:22:07.141Z,-3.24
2017-01-29T00:23:07.792Z,-3.38
2017-01-29T00:24:07.258Z,-3.61
2017-01-29T00:25:07.825Z,-3.70
2017-01-29T00:26:07.564Z,-3.91
2017-01-29T00:27:08.120Z,-3.70
2017-01-29T00:28:07.597Z,-3.61
2017-01-29T00:29:07.166Z,-3.49
2017-01-29T00:30:07.748Z,-3.41
2017-01-29T00:31:07.545Z,-3.54
2017-01-29T00:32:08.113Z,-3.46
2017-01-29T00:33:07.708Z,-3.31
2017-01-29T00:34:07.186Z,-3.42
2017-01-29T00:35:07.682Z,-3.28
2017-01-29T00:36:07.273Z,-3.64
2017-01-29T00:37:07.837Z,-3.71
2017-01-29T00:38:07.549Z,-3.48
2017-01-29T00:39:08.067Z,-3.33
2017-01-29T00:40:07.621Z,-3.63
2017-01-29T00:41:07.083Z,-3.56
2017-01-29T00:42:07.894Z,-3.66
2017-01-29T00:43:07.418Z,-3.47
2017-01-29T00:44:07.933Z,-3.25
2017-01-29T00:45:07.431Z,-3.41
2017-01-29T00:46:07.992Z,-3.39
2017-01-29T00:47:07.594Z,-3.54
2017-01-29T00:48:07.386Z,-3.48
2017-01-29T00:49:07.915Z,-3.56
2017-01-29T00:50:07.522Z,-3.50
2017-01-29T00:51:08.164Z,-3.37
2017-01-29T00:52:07.878Z,-3.52
2017-01-29T00:53:07.363Z,-3.54
2017-01-29T00:54:07.909Z,-3.53
2017-01-29T00:55:07.396Z,-3.67
2017-01-29T00:56:07.954Z,-3.84
2017-01-29T00:57:07.596Z,-3.73
2017-01-29T00:58:07.104Z,-3.61
2017-01-29T00:59:07.592Z,-3.77
2017-01-29T01:00:08.175Z,-3.74
2017-01-29T01:01:07.854Z,-3.63
2017-01-29T01:02:07.585Z,-3.79
2017-01-29T01:03:07.212Z,-3.60
2017-01-29T01:04:07.914Z,-3.80
2017-01-29T01:05:07.443Z,-3.91
2017-01-29T01:06:07.972Z,-3.73
2017-01-29T01:07:07.595Z,-3.62
2017-01-29T01:08:07.136Z,-3.54
2017-01-29T01:09:07.676Z,-3.73
2017-01-29T01:10:07.373Z,-3.64
2017-01-29T01:11:07.907Z,-3.71
2017-01-29T01:12:07.524Z,-3.57
2017-01-29T01:13:08.069Z,-3.60
2017-01-29T01:14:07.766Z,-3.67
2017-01-29T01:15:07.586Z,-3.81
2017-01-29T01:16:07.040Z,-3.92
2017-01-29T01:17:07.620Z,-3.70
2017-01-29T01:18:07.213Z,-3.75
2017-01-29T01:19:07.815Z,-3.62
2017-01-29T01:20:07.375Z,-3.68
2017-01-29T01:21:07.874Z,-3.74
2017-01-29T01:22:07.385Z,-3.79
2017-01-29T01:23:08.089Z,-3.72
2017-01-29T01:24:07.926Z,-3.73
2017-01-29T01:25:07.411Z,-3.67
2017-01-29T01:26:07.853Z,-3.84
2017-01-29T01:27:07.917Z,-3.80
2017-01-29T01:28:07.398Z,-3.81
2017-01-29T01:29:07.927Z,-3.72
2017-01-29T01:30:07.516Z,-3.62
2017-01-29T01:31:08.081Z,-3.69
2017-01-29T01:32:07.804Z,-3.89
2017-01-29T01:33:07.420Z,-3.90
2017-01-29T01:34:07.983Z,-3.93
2017-01-29T01:35:07.774Z,-3.91
2017-01-29T01:36:07.449Z,-4.24
2017-01-29T01:37:08.069Z,-4.00
2017-01-29T01:38:07.542Z,-4.22
2017-01-29T01:39:08.028Z,-4.09
2017-01-29T01:40:07.605Z,-4.13
2017-01-29T01:41:07.179Z,-3.94
2017-01-29T01:42:07.683Z,-4.04
2017-01-29T01:43:07.324Z,-4.08
2017-01-29T01:44:08.071Z,-3.81
2017-01-29T01:45:07.705Z,-3.96
2017-01-29T01:46:07.494Z,-3.78
2017-01-29T01:47:08.082Z,-4.15
2017-01-29T01:48:07.823Z,-3.95
2017-01-29T01:49:07.350Z,-3.75
2017-01-29T01:50:07.939Z,-3.70
2017-01-29T01:51:07.581Z,-3.72
2017-01-29T01:52:07.130Z,-4.04
2017-01-29T01:53:07.941Z,-4.09
2017-01-29T01:54:07.529Z,-3.84
2017-01-29T01:55:08.091Z,-3.88
2017-01-29T01:56:07.927Z,-3.61
2017-01-29T01:57:07.595Z,-3.79
2017-01-29T01:58:07.103Z,-4.00
2017-01-29T01:59:07.753Z,-4.23
2017-01-29T02:00:07.264Z,-4.20
2017-01-29T02:01:07.821Z,-4.04
2017-01-29T02:02:07.368Z,-4.02
2017-01-29T02:03:07.846Z,-3.91
2017-01-29T02:04:07.438Z,-3.68
2017-01-29T02:05:08.153Z,-3.65
2017-01-29T02:06:07.810Z,-3.67
2017-01-29T02:07:07.363Z,-3.65
2017-01-29T02:08:07.829Z,-3.65
2017-01-29T02:09:07.625Z,-3.70
2017-01-29T02:10:07.199Z,-3.63
2017-01-29T02:11:07.757Z,-4.00
2017-01-29T02:12:07.323Z,-3.94
2017-01-29T02:13:07.902Z,-3.86
2017-01-29T02:14:07.373Z,-4.06
2017-01-29T02:15:07.877Z,-4.09
2017-01-29T02:16:07.575Z,-4.12
2017-01-29T02:17:08.231Z,-4.14
2017-01-29T02:18:07.889Z,-3.95
2017-01-29T02:19:07.499Z,-4.39
2017-01-29T02:20:08.089Z,-4.46
2017-01-29T02:21:07.660Z,-4.29
2017-01-29T02:22:07.218Z,-4.28
2017-01-29T02:23:07.732Z,-4.29
2017-01-29T02:24:07.915Z,-3.98
2017-01-29T02:25:07.494Z,-3.90
2017-01-29T02:26:08.272Z,-3.99
2017-01-29T02:27:07.770Z,-4.09
2017-01-29T02:28:07.509Z,-4.22
2017-01-29T02:29:08.109Z,-4.31
2017-01-29T02:30:07.624Z,-4.25
2017-01-29T02:31:07.294Z,-4.15
2017-01-29T02:32:07.914Z,-4.15
2017-01-29T02:33:07.447Z,-4.06
2017-01-29T02:34:08.016Z,-4.13
2017-01-29T02:35:07.549Z,-3.95
2017-01-29T02:36:08.074Z,-4.04
2017-01-29T02:37:07.574Z,-4.26
2017-01-29T02:38:08.406Z,-4.15
2017-01-29T02:39:07.903Z,-4.28
2017-01-29T02:40:07.389Z,-4.22
2017-01-29T02:41:07.847Z,-4.59
2017-01-29T02:42:07.495Z,-4.45
2017-01-29T02:43:08.116Z,-4.27
2017-01-29T02:44:07.596Z,-4.43
2017-01-29T02:45:08.004Z,-4.44
2017-01-29T02:46:07.500Z,-4.31
2017-01-29T02:47:08.043Z,-4.41
2017-01-29T02:48:07.749Z,-4.47
2017-01-29T02:49:07.414Z,-4.29
2017-01-29T02:50:08.990Z,-4.19
2017-01-29T02:51:07.775Z,-4.21
2017-01-29T02:52:07.677Z,-4.21
2017-01-29T02:53:07.156Z,-4.20
2017-01-29T02:54:07.640Z,-4.36
2017-01-29T02:55:07.167Z,-4.43
2017-01-29T02:56:07.695Z,-4.63
2017-01-29T02:57:07.207Z,-4.49
2017-01-29T02:58:07.788Z,-4.45
2017-01-29T02:59:07.295Z,-4.18
2017-01-29T03:00:07.891Z,-4.39
2017-01-29T03:01:07.646Z,-4.60
2017-01-29T03:02:07.141Z,-4.48
2017-01-29T03:03:08.003Z,-4.24
2017-01-29T03:04:07.584Z,-4.49
2017-01-29T03:05:07.088Z,-4.59
2017-01-29T03:06:07.660Z,-4.80
2017-01-29T03:07:07.129Z,-4.51
2017-01-29T03:08:07.668Z,-4.35
2017-01-29T03:09:07.257Z,-4.57
2017-01-29T03:10:07.767Z,-4.42
2017-01-29T03:11:07.269Z,-4.57
2017-01-29T03:12:07.847Z,-4.30
2017-01-29T03:13:07.714Z,-4.31
2017-01-29T03:14:07.619Z,-4.35
2017-01-29T03:15:07.230Z,-4.64
2017-01-29T03:16:07.703Z,-4.63
2017-01-29T03:17:07.323Z,-4.42
2017-01-29T03:18:08.047Z,-4.38
2017-01-29T03:19:07.579Z,-4.52
2017-01-29T03:20:08.123Z,-4.66
2017-01-29T03:21:07.847Z,-4.45
2017-01-29T03:22:07.623Z,-4.71
2017-01-29T03:23:07.383Z,-4.57
2017-01-29T03:24:07.931Z,-4.46
2017-01-29T03:25:07.477Z,-4.50
2017-01-29T03:26:08.080Z,-4.42
2017-01-29T03:27:07.508Z,-4.42
2017-01-29T03:28:07.390Z,-4.68
2017-01-29T03:29:07.949Z,-4.45
2017-01-29T03:30:07.538Z,-4.45
2017-01-29T03:31:08.054Z,-4.43
2017-01-29T03:32:07.847Z,-4.51
2017-01-29T03:33:07.997Z,-4.62
2017-01-29T03:34:07.492Z,-4.65
2017-01-29T03:35:07.962Z,-4.51
2017-01-29T03:36:07.641Z,-4.76
2017-01-29T03:37:07.084Z,-4.56
2017-01-29T03:38:07.560Z,-4.70
2017-01-29T03:39:08.136Z,-4.65
2017-01-29T03:40:07.640Z,-4.70
2017-01-29T03:41:07.192Z,-4.77
2017-01-29T03:42:07.702Z,-4.66
2017-01-29T03:43:07.181Z,-4.72
2017-01-29T03:44:07.714Z,-4.52
2017-01-29T03:45:07.630Z,-4.55
2017-01-29T03:46:07.129Z,-4.44
2017-01-29T03:47:07.589Z,-4.66
2017-01-29T03:48:07.831Z,-4.71
2017-01-29T03:49:07.317Z,-4.74
2017-01-29T03:50:07.830Z,-4.79
2017-01-29T03:52:07.405Z,-4.95
2017-01-29T03:53:07.889Z,-4.75
2017-01-29T03:54:07.367Z,-4.76
2017-01-29T03:55:07.880Z,-4.68
2017-01-29T03:56:07.644Z,-4.67
2017-01-29T03:57:07.152Z,-4.73
2017-01-29T03:58:07.649Z,-4.48
2017-01-29T03:59:07.178Z,-4.57
2017-01-29T04:00:07.809Z,-4.43
2017-01-29T04:01:07.377Z,-4.56
2017-01-29T04:02:07.978Z,-4.69
2017-01-29T04:03:07.511Z,-4.54
2017-01-29T04:04:08.130Z,-4.56
2017-01-29T04:05:07.838Z,-4.76
2017-01-29T04:06:07.548Z,-4.55
2017-01-29T04:07:08.051Z,-4.79
2017-01-29T04:08:07.579Z,-4.86
2017-01-29T04:09:08.169Z,-4.68
2017-01-29T04:10:07.637Z,-4.67
2017-01-29T04:11:07.163Z,-4.74
2017-01-29T04:12:07.671Z,-4.64
2017-01-29T04:13:07.514Z,-4.61
2017-01-29T04:14:07.715Z,-4.68
2017-01-29T04:15:07.217Z,-4.78
2017-01-29T04:16:07.771Z,-4.63
2017-01-29T04:17:07.412Z,-4.62
2017-01-29T04:18:08.099Z,-4.82
2017-01-29T04:19:07.738Z,-4.69
2017-01-29T04:20:07.312Z,-4.75
2017-01-29T04:21:07.854Z,-4.66
2017-01-29T04:22:07.416Z,-4.68
2017-01-29T04:23:07.937Z,-4.77
2017-01-29T04:24:07.417Z,-4.86
2017-01-29T04:25:08.146Z,-4.70
2017-01-29T04:26:07.652Z,-4.72
2017-01-29T04:27:07.390Z,-4.77
2017-01-29T04:28:07.877Z,-4.88
2017-01-29T04:29:07.380Z,-4.73
2017-01-29T04:30:07.999Z,-4.83
2017-01-29T04:31:07.477Z,-4.88
2017-01-29T04:32:08.118Z,-5.01
2017-01-29T04:33:07.630Z,-4.77
2017-01-29T04:34:07.187Z,-4.68
2017-01-29T04:35:07.820Z,-4.68
2017-01-29T04:36:07.381Z,-4.66
2017-01-29T04:37:07.975Z,-4.88
2017-01-29T04:38:07.479Z,-4.78
2017-01-29T04:39:08.220Z,-4.96
2017-01-29T04:40:07.831Z,-4.79
2017-01-29T04:41:07.320Z,-4.70
2017-01-29T04:42:07.895Z,-4.93
2017-01-29T04:43:07.417Z,-4.88
2017-01-29T04:44:08.031Z,-4.75
2017-01-29T04:45:07.653Z,-4.94
2017-01-29T04:46:07.346Z,-4.89
2017-01-29T04:47:07.905Z,-5.02
2017-01-29T04:48:07.623Z,-4.77
2017-01-29T04:49:07.173Z,-4.61
2017-01-29T04:50:07.749Z,-4.78
2017-01-29T04:51:07.486Z,-4.90
2017-01-29T04:52:07.974Z,-4.97
2017-01-29T04:53:07.458Z,-4.76
2017-01-29T04:54:08.068Z,-4.78
2017-01-29T04:55:07.570Z,-4.77
2017-01-29T04:56:08.136Z,-4.76
2017-01-29T04:57:07.900Z,-4.66
2017-01-29T04:58:07.370Z,-4.72
2017-01-29T04:59:07.854Z,-4.65
2017-01-29T05:00:07.563Z,-4.65
2017-01-29T05:01:08.073Z,-4.73
2017-01-29T05:02:07.637Z,-4.78
2017-01-29T05:03:07.183Z,-4.80
2017-01-29T05:04:07.673Z,-4.72
2017-01-29T05:05:07.290Z,-4.96
2017-01-29T05:06:07.739Z,-4.98
2017-01-29T05:07:07.523Z,-4.99
2017-01-29T05:08:08.132Z,-4.96
2017-01-29T05:09:07.652Z,-5.21
2017-01-29T05:10:07.443Z,-4.98
2017-01-29T05:11:08.171Z,-5.02
2017-01-29T05:12:07.680Z,-4.83
2017-01-29T05:13:07.368Z,-4.76
2017-01-29T05:14:07.855Z,-4.93
2017-01-29T05:15:07.446Z,-4.91
2017-01-29T05:16:08.093Z,-4.93
2017-01-29T05:17:07.845Z,-4.96
2017-01-29T05:18:07.553Z,-5.02
2017-01-29T05:19:08.171Z,-5.04
2017-01-29T05:20:07.970Z,-5.34
2017-01-29T05:21:07.688Z,-5.23
2017-01-29T05:22:07.242Z,-5.12
2017-01-29T05:23:07.811Z,-5.07
2017-01-29T05:24:07.256Z,-5.10
2017-01-29T05:25:10.605Z,-4.80
2017-01-29T05:26:07.684Z,-4.78
2017-01-29T05:27:07.167Z,-4.71
2017-01-29T05:28:07.822Z,-4.81
2017-01-29T05:29:07.283Z,-4.77
2017-01-29T05:30:08.137Z,-4.88
2017-01-29T05:31:07.711Z,-4.82
2017-01-29T05:32:07.285Z,-4.94
2017-01-29T05:33:07.871Z,-4.94
2017-01-29T05:34:07.334Z,-5.08
2017-01-29T05:35:07.855Z,-4.74
2017-01-29T05:36:07.354Z,-5.05
2017-01-29T05:37:07.421Z,-5.01
2017-01-29T05:38:07.917Z,-4.94
2017-01-29T05:39:07.443Z,-4.85
2017-01-29T05:40:08.171Z,-4.87
2017-01-29T05:41:07.631Z,-4.80
2017-01-29T05:42:07.290Z,-4.96
2017-01-29T05:43:08.076Z,-5.07
2017-01-29T05:44:07.554Z,-4.85
2017-01-29T05:45:08.106Z,-4.91
2017-01-29T05:46:07.644Z,-4.91
2017-01-29T05:47:08.849Z,-5.06
2017-01-29T05:48:07.512Z,-5.11
2017-01-29T05:49:08.102Z,-4.76
2017-01-29T05:50:07.663Z,-4.93
2017-01-29T05:51:07.380Z,-4.68
2017-01-29T05:52:07.946Z,-5.05
2017-01-29T05:53:07.645Z,-5.11
2017-01-29T05:54:07.166Z,-5.13
2017-01-29T05:55:07.682Z,-4.93
2017-01-29T05:56:07.174Z,-4.94
2017-01-29T05:57:07.681Z,-4.94
2017-01-29T05:58:07.168Z,-4.82
2017-01-29T05:59:07.706Z,-5.05
2017-01-29T06:00:07.313Z,-5.16
2017-01-29T06:01:07.872Z,-4.87
2017-01-29T06:02:07.369Z,-5.08
2017-01-29T06:03:07.921Z,-5.10
2017-01-29T06:04:07.387Z,-4.99
2017-01-29T06:05:07.957Z,-4.85
2017-01-29T06:06:07.468Z,-4.75
2017-01-29T06:07:07.959Z,-5.15
2017-01-29T06:08:07.440Z,-5.16
2017-01-29T06:09:08.223Z,-5.01
2017-01-29T06:10:07.855Z,-5.05
2017-01-29T06:11:07.523Z,-4.89
2017-01-29T06:12:07.456Z,-4.84
2017-01-29T06:13:08.016Z,-5.12
2017-01-29T06:14:07.606Z,-5.03
2017-01-29T06:15:07.481Z,-5.25
2017-01-29T06:16:08.125Z,-4.80
2017-01-29T06:17:07.794Z,-5.07
2017-01-29T06:18:07.473Z,-5.07
2017-01-29T06:19:07.973Z,-4.91
2017-01-29T06:20:07.508Z,-4.73
2017-01-29T06:21:08.272Z,-4.93
2017-01-29T06:22:07.730Z,-4.74
2017-01-29T06:23:07.464Z,-4.91
2017-01-29T06:24:08.010Z,-5.34
2017-01-29T06:25:07.569Z,-5.07
2017-01-29T06:26:07.115Z,-5.11
2017-01-29T06:27:07.668Z,-5.23
2017-01-29T06:28:07.181Z,-5.23
2017-01-29T06:29:07.706Z,-5.13
2017-01-29T06:30:07.167Z,-5.16
2017-01-29T06:31:07.718Z,-5.14
2017-01-29T06:32:07.249Z,-4.75
2017-01-29T06:33:07.909Z,-4.67
2017-01-29T06:34:07.410Z,-4.94
2017-01-29T06:35:07.986Z,-4.79
2017-01-29T06:36:07.453Z,-5.03
2017-01-29T06:37:08.307Z,-5.03
2017-01-29T06:38:07.904Z,-4.98
2017-01-29T06:39:07.392Z,-5.12
2017-01-29T06:40:07.974Z,-5.05
2017-01-29T06:41:07.461Z,-5.01
2017-01-29T06:42:08.240Z,-5.18
2017-01-29T06:43:07.795Z,-5.01
2017-01-29T06:44:07.271Z,-4.79
2017-01-29T06:45:07.687Z,-4.91
2017-01-29T06:46:07.300Z,-4.95
2017-01-29T06:47:07.893Z,-4.85
2017-01-29T06:48:07.666Z,-4.96
2017-01-29T06:49:07.457Z,-4.86
2017-01-29T06:50:08.012Z,-5.11
2017-01-29T06:51:07.499Z,-5.20
2017-01-29T06:52:08.009Z,-5.18
2017-01-29T06:53:07.628Z,-5.04
2017-01-29T06:54:07.328Z,-4.96
2017-01-29T06:55:07.869Z,-4.86
2017-01-29T06:56:07.450Z,-4.90
2017-01-29T06:57:07.940Z,-4.87
2017-01-29T06:58:07.646Z,-4.97
2017-01-29T06:59:07.323Z,-5.00
2017-01-29T07:00:07.810Z,-5.02
2017-01-29T07:01:07.474Z,-5.01
2017-01-29T07:02:08.054Z,-4.96
2017-01-29T07:03:07.658Z,-4.93
2017-01-29T07:04:07.260Z,-4.88
2017-01-29T07:05:07.694Z,-4.85
2017-01-29T07:06:07.312Z,-4.80
2017-01-29T07:07:07.888Z,-4.95
2017-01-29T07:08:07.615Z,-5.18
2017-01-29T07:09:07.136Z,-5.14
2017-01-29T07:10:07.730Z,-5.17
2017-01-29T07:11:07.213Z,-5.20
2017-01-29T07:12:07.767Z,-5.00
2017-01-29T07:13:07.300Z,-5.18
2017-01-29T07:14:07.813Z,-4.85
2017-01-29T07:15:07.907Z,-4.85
2017-01-29T07:16:07.577Z,-4.90
2017-01-29T07:17:07.259Z,-4.76
2017-01-29T07:18:07.882Z,-4.94
2017-01-29T07:19:07.353Z,-4.84
2017-01-29T07:20:07.942Z,-4.73
2017-01-29T07:21:07.648Z,-4.84
2017-01-29T07:22:07.422Z,-4.95
2017-01-29T07:23:07.945Z,-4.88
2017-01-29T07:24:07.440Z,-4.52
2017-01-29T07:25:07.956Z,-4.60
2017-01-29T07:26:07.496Z,-4.84
2017-01-29T07:27:08.034Z,-4.68
2017-01-29T07:28:07.603Z,-4.81
2017-01-29T07:29:07.162Z,-4.57
2017-01-29T07:30:07.721Z,-4.40
2017-01-29T07:31:07.413Z,-4.28
2017-01-29T07:32:07.902Z,-4.41
2017-01-29T07:33:07.447Z,-4.34
2017-01-29T07:34:08.072Z,-4.33
2017-01-29T07:35:07.595Z,-4.31
2017-01-29T07:36:07.329Z,-4.25
2017-01-29T07:37:07.844Z,-4.28
2017-01-29T07:38:07.594Z,-4.30
2017-01-29T07:39:07.212Z,-4.39
2017-01-29T07:40:07.833Z,-4.27
2017-01-29T07:41:07.323Z,-4.02
2017-01-29T07:42:07.866Z,-4.04
2017-01-29T07:43:07.474Z,-4.22
2017-01-29T07:44:07.923Z,-4.08
2017-01-29T07:45:07.432Z,-3.96
2017-01-29T07:46:08.039Z,-4.03
2017-01-29T07:47:07.603Z,-4.08
2017-01-29T07:48:07.239Z,-4.03
2017-01-29T07:49:07.815Z,-3.86
2017-01-29T07:50:07.363Z,-3.77
2017-01-29T07:51:07.857Z,-3.69
2017-01-29T07:52:07.362Z,-4.00
2017-01-29T07:53:08.004Z,-3.69
2017-01-29T07:54:07.524Z,-3.59
2017-01-29T07:55:08.039Z,-3.64
2017-01-29T07:56:07.565Z,-3.64
2017-01-29T07:57:08.070Z,-3.55
2017-01-29T07:58:07.631Z,-3.49
2017-01-29T07:59:07.824Z,-3.45
2017-01-29T08:00:07.366Z,-3.35
2017-01-29T08:01:07.973Z,-3.24
2017-01-29T08:02:07.707Z,-3.27
2017-01-29T08:03:07.242Z,-3.28
2017-01-29T08:04:07.839Z,-3.23
2017-01-29T08:05:07.423Z,-3.07
2017-01-29T08:06:07.975Z,-3.12
2017-01-29T08:07:07.434Z,-2.99
2017-01-29T08:08:08.022Z,-2.99
2017-01-29T08:09:07.535Z,-2.99
2017-01-29T08:10:08.043Z,-2.87
2017-01-29T08:11:07.554Z,-2.90
2017-01-29T08:12:08.092Z,-2.85
2017-01-29T08:13:08.005Z,-2.82
2017-01-29T08:14:07.594Z,-2.75
2017-01-29T08:15:07.165Z,-2.53
2017-01-29T08:16:07.708Z,-2.64
2017-01-29T08:17:07.364Z,-2.65
2017-01-29T08:18:07.994Z,-2.58
2017-01-29T08:19:07.589Z,-2.65
2017-01-29T08:20:07.189Z,-2.49
2017-01-29T08:21:07.717Z,-2.29
2017-01-29T08:22:07.539Z,-2.27
2017-01-29T08:23:08.182Z,-2.22
2017-01-29T08:24:07.750Z,-2.18
2017-01-29T08:25:07.217Z,-2.16
2017-01-29T08:26:07.765Z,-2.20
2017-01-29T08:27:07.241Z,-2.12
2017-01-29T08:28:07.828Z,-2.05
2017-01-29T08:29:07.455Z,-1.98
2017-01-29T08:30:08.042Z,-1.87
2017-01-29T08:31:07.593Z,-1.92
2017-01-29T08:32:07.068Z,-1.96
2017-01-29T08:33:08.577Z,-1.87
2017-01-29T08:34:07.550Z,-1.84
2017-01-29T08:35:08.118Z,-1.79
2017-01-29T08:36:07.698Z,-1.80
2017-01-29T08:37:07.920Z,-1.69
2017-01-29T08:38:08.561Z,-1.63
2017-01-29T08:39:07.202Z,-1.61
2017-01-29T08:40:07.864Z,-1.54
2017-01-29T08:41:07.529Z,-1.53
2017-01-29T08:42:08.062Z,-1.58
2017-01-29T08:43:07.744Z,-1.44
2017-01-29T08:44:07.489Z,-1.44
2017-01-29T08:45:07.959Z,-1.44
2017-01-29T08:46:07.526Z,-1.46
2017-01-29T08:47:08.013Z,-1.64
2017-01-29T08:48:07.788Z,-1.58
2017-01-29T08:49:07.354Z,-1.36
2017-01-29T08:50:07.976Z,-1.16
2017-01-29T08:51:07.572Z,-1.24
2017-01-29T08:52:08.073Z,-1.08
2017-01-29T08:53:07.550Z,-0.85
2017-01-29T08:54:08.193Z,-0.90
2017-01-29T08:55:07.758Z,-0.83
2017-01-29T08:56:07.299Z,-0.77
2017-01-29T08:57:08.011Z,-0.79
2017-01-29T08:58:07.754Z,-0.69
2017-01-29T08:59:07.194Z,-0.66
2017-01-29T09:00:07.838Z,-0.75
2017-01-29T09:01:07.332Z,-0.74
2017-01-29T09:02:07.947Z,-0.58
2017-01-29T09:03:07.483Z,-0.62
2017-01-29T09:04:08.404Z,-0.60
2017-01-29T09:05:08.066Z,-0.60
2017-01-29T09:06:07.621Z,-0.61
2017-01-29T09:07:07.288Z,-0.72
2017-01-29T09:08:08.120Z,-0.49
2017-01-29T09:09:07.716Z,-0.44
2017-01-29T09:10:07.461Z,-0.37
2017-01-29T09:11:07.925Z,-0.22
2017-01-29T09:12:07.453Z,-0.27
2017-01-29T09:13:07.979Z,-0.18
2017-01-29T09:14:07.552Z,-0.20
2017-01-29T09:15:08.100Z,-0.16
2017-01-29T09:16:07.639Z,-0.27
2017-01-29T09:17:07.265Z,-0.28
2017-01-29T09:18:07.931Z,-0.17
2017-01-29T09:19:07.535Z,-0.20
2017-01-29T09:20:07.075Z,-0.11
2017-01-29T09:21:07.554Z,0.12
2017-01-29T09:22:08.055Z,0.19
2017-01-29T09:23:07.594Z,0.32
2017-01-29T09:24:07.024Z,0.34
2017-01-29T09:25:07.791Z,0.34
2017-01-29T09:26:07.658Z,0.42
2017-01-29T09:27:07.114Z,0.61
2017-01-29T09:28:07.710Z,0.53
2017-01-29T09:29:07.592Z,0.44
2017-01-29T09:30:08.395Z,0.60
2017-01-29T09:31:07.929Z,0.75
2017-01-29T09:32:07.424Z,0.85
2017-01-29T09:33:07.920Z,0.93
2017-01-29T09:34:07.528Z,0.93
2017-01-29T09:35:08.220Z,0.96
2017-01-29T09:36:08.671Z,1.08
2017-01-29T09:37:07.201Z,1.11
2017-01-29T09:38:07.698Z,1.17
2017-01-29T09:39:07.228Z,1.20
2017-01-29T09:40:08.176Z,1.14
2017-01-29T09:41:07.737Z,1.23
2017-01-29T09:42:07.306Z,1.26
2017-01-29T09:43:07.345Z,1.21
2017-01-29T09:44:07.876Z,1.30
2017-01-29T09:45:07.445Z,1.24
2017-01-29T09:46:08.027Z,1.28
2017-01-29T09:47:07.580Z,1.36
2017-01-29T09:48:07.406Z,1.32
2017-01-29T09:49:07.751Z,1.38
2017-01-29T09:50:07.567Z,1.50
2017-01-29T09:51:08.176Z,1.55
2017-01-29T09:52:07.795Z,1.58
2017-01-29T09:53:08.275Z,1.51
2017-01-29T09:54:07.373Z,1.65
2017-01-29T09:55:07.989Z,1.70
2017-01-29T09:56:07.580Z,1.73
2017-01-29T09:57:07.259Z,1.76
2017-01-29T09:58:07.833Z,1.76
2017-01-29T09:59:07.457Z,1.74
2017-01-29T10:00:07.992Z,1.65
2017-01-29T10:01:07.598Z,1.91
2017-01-29T10:02:07.547Z,1.99
2017-01-29T10:03:08.106Z,2.10
2017-01-29T10:04:07.700Z,2.20
2017-01-29T10:05:07.178Z,2.09
2017-01-29T10:06:07.771Z,2.09
2017-01-29T10:07:07.379Z,2.09
2017-01-29T10:08:07.894Z,2.06
2017-01-29T10:09:07.449Z,2.04
2017-01-29T10:10:07.930Z,2.08
2017-01-29T10:11:07.528Z,2.08
2017-01-29T10:12:07.998Z,2.09
2017-01-29T10:13:07.494Z,2.08
2017-01-29T10:14:08.275Z,2.21
2017-01-29T10:15:07.675Z,2.29
2017-01-29T10:16:08.051Z,2.42
2017-01-29T10:17:07.698Z,2.44
2017-01-29T10:18:07.380Z,2.40
2017-01-29T10:19:07.939Z,2.38
2017-01-29T10:20:07.584Z,2.41
2017-01-29T10:21:08.183Z,2.47
2017-01-29T10:22:07.727Z,2.47
2017-01-29T10:23:07.438Z,2.58
2017-01-29T10:24:07.953Z,2.63
2017-01-29T10:25:07.795Z,2.73
2017-01-29T10:26:07.314Z,2.80
2017-01-29T10:27:07.855Z,2.76
2017-01-29T10:28:07.347Z,2.79
2017-01-29T10:29:07.924Z,2.75
2017-01-29T10:30:07.443Z,2.77
2017-01-29T10:31:08.003Z,2.77
2017-01-29T10:32:08.436Z,2.76
2017-01-29T10:33:07.960Z,2.74
2017-01-29T10:34:07.447Z,2.82
2017-01-29T10:35:08.907Z,2.86
2017-01-29T10:36:07.535Z,2.96
2017-01-29T10:37:08.180Z,2.96
2017-01-29T10:38:07.754Z,2.94
2017-01-29T10:39:07.297Z,2.95
2017-01-29T10:40:08.731Z,2.99
2017-01-29T10:41:07.217Z,3.04
2017-01-29T10:42:08.698Z,3.17
2017-01-29T10:43:08.155Z,3.15
2017-01-29T10:44:07.669Z,3.10
2017-01-29T10:45:08.076Z,3.16
2017-01-29T10:46:08.556Z,3.31
2017-01-29T10:47:08.086Z,3.35
2017-01-29T10:48:08.518Z,3.45
2017-01-29T10:49:08.208Z,3.43
2017-01-29T10:50:07.759Z,3.36
2017-01-29T10:51:08.272Z,3.40
2017-01-29T10:52:08.005Z,3.46
2017-01-29T10:53:07.987Z,3.51
2017-01-29T10:54:07.749Z,3.53
2017-01-29T10:55:08.218Z,3.55
2017-01-29T10:56:07.781Z,3.58
2017-01-29T10:57:07.692Z,3.81
2017-01-29T10:58:07.195Z,4.03
2017-01-29T10:59:07.790Z,4.03
2017-01-29T11:00:07.353Z,3.91
2017-01-29T11:01:07.921Z,3.74
2017-01-29T11:02:07.428Z,3.70
2017-01-29T11:03:07.629Z,3.78
2017-01-29T11:04:07.348Z,3.74
2017-01-29T11:05:07.962Z,3.74
2017-01-29T11:06:07.659Z,3.76
2017-01-29T11:07:07.224Z,3.90
2017-01-29T11:08:07.416Z,3.90
2017-01-29T11:09:08.119Z,3.91
2017-01-29T11:10:07.731Z,3.96
2017-01-29T11:11:08.191Z,3.98
2017-01-29T11:12:07.736Z,4.13
2017-01-29T11:13:07.393Z,4.07
2017-01-29T11:14:08.316Z,4.18
2017-01-29T11:15:07.885Z,4.15
2017-01-29T11:16:07.388Z,4.17
2017-01-29T11:17:08.075Z,4.17
2017-01-29T11:18:07.580Z,4.14
2017-01-29T11:19:08.110Z,4.10
2017-01-29T11:20:07.578Z,4.16
2017-01-29T11:21:08.243Z,4.16
2017-01-29T11:22:07.836Z,4.19
2017-01-29T11:23:07.313Z,4.23
2017-01-29T11:24:07.824Z,4.37
2017-01-29T11:25:07.348Z,4.52
2017-01-29T11:26:08.020Z,4.69
2017-01-29T11:27:07.963Z,4.83
2017-01-29T11:28:07.422Z,4.84
2017-01-29T11:29:08.500Z,4.78
2017-01-29T11:30:08.361Z,4.69
2017-01-29T11:31:07.874Z,4.89
2017-01-29T11:32:07.437Z,4.75
2017-01-29T11:33:08.041Z,4.78
2017-01-29T11:34:07.678Z,4.81
2017-01-29T11:35:07.184Z,5.06
2017-01-29T11:36:07.682Z,5.09
2017-01-29T11:37:07.493Z,5.08
2017-01-29T11:38:08.171Z,5.10
2017-01-29T11:39:08.241Z,5.17
2017-01-29T11:40:07.764Z,5.01
2017-01-29T11:41:07.370Z,4.99
2017-01-29T11:42:07.845Z,4.94
2017-01-29T11:43:07.399Z,4.99
2017-01-29T11:44:07.904Z,5.20
2017-01-29T11:45:07.483Z,5.19
2017-01-29T11:46:08.053Z,5.30
2017-01-29T11:47:07.563Z,5.15
2017-01-29T11:48:07.690Z,5.09
2017-01-29T11:49:07.217Z,5.16
2017-01-29T11:50:07.760Z,5.23
2017-01-29T11:51:07.278Z,5.26
2017-01-29T11:52:07.827Z,5.24
2017-01-29T11:53:07.416Z,5.17
2017-01-29T11:54:07.944Z,5.27
2017-01-29T11:55:07.441Z,5.20
2017-01-29T11:56:08.155Z,5.13
2017-01-29T11:57:07.763Z,5.20
2017-01-29T11:58:07.233Z,5.41
2017-01-29T11:59:08.061Z,5.40
2017-01-29T12:00:07.658Z,5.29
2017-01-29T12:01:07.169Z,5.36
2017-01-29T12:02:07.767Z,5.45
2017-01-29T12:03:07.323Z,5.42
2017-01-29T12:04:08.059Z,5.43
2017-01-29T12:05:07.646Z,5.42
2017-01-29T12:06:07.262Z,5.41
2017-01-29T12:07:07.895Z,5.35
2017-01-29T12:08:07.472Z,5.77
2017-01-29T12:09:08.216Z,5.61
2017-01-29T12:10:07.779Z,5.64
2017-01-29T12:11:07.360Z,5.75
2017-01-29T12:12:07.962Z,5.92
2017-01-29T12:13:07.543Z,5.91
2017-01-29T12:14:09.151Z,5.88
2017-01-29T12:15:08.126Z,5.69
2017-01-29T12:16:07.850Z,5.55
2017-01-29T12:18:10.646Z,5.61
2017-01-29T12:18:17.782Z,5.57
2017-01-29T12:19:07.276Z,5.51
2017-01-29T12:20:07.967Z,5.45
2017-01-29T12:21:07.854Z,5.52
2017-01-29T12:22:07.494Z,5.53
2017-01-29T12:23:08.212Z,5.54
2017-01-29T12:24:07.790Z,5.79
2017-01-29T12:25:07.341Z,5.76
2017-01-29T12:26:07.855Z,5.72
2017-01-29T12:27:08.313Z,5.72
2017-01-29T12:28:08.022Z,5.76
2017-01-29T12:29:07.517Z,5.65
2017-01-29T12:30:08.003Z,5.67
2017-01-29T12:31:07.473Z,5.64
2017-01-29T12:32:08.071Z,5.78
2017-01-29T12:33:08.003Z,5.83
2017-01-29T12:35:07.743Z,5.81
2017-01-29T12:36:07.586Z,5.68
2017-01-29T12:37:08.222Z,5.62
2017-01-29T12:38:07.855Z,5.54
2017-01-29T12:39:07.404Z,5.59
2017-01-29T12:40:08.034Z,5.87
2017-01-29T12:41:07.627Z,5.92
2017-01-29T12:42:07.483Z,6.28
2017-01-29T12:43:08.011Z,6.09
2017-01-29T12:44:07.501Z,5.94
2017-01-29T12:45:07.949Z,5.87
2017-01-29T12:46:07.483Z,5.86
2017-01-29T12:47:08.068Z,5.84
2017-01-29T12:48:07.562Z,5.96
2017-01-29T12:49:08.076Z,5.86
2017-01-29T12:50:07.582Z,5.90
2017-01-29T12:51:08.168Z,5.91
2017-01-29T12:52:07.674Z,5.93
2017-01-29T12:53:07.393Z,5.91
2017-01-29T12:54:07.889Z,5.98
2017-01-29T12:55:07.499Z,5.97
2017-01-29T12:56:08.044Z,5.91
2017-01-29T12:57:07.619Z,5.83
2017-01-29T12:58:07.528Z,5.78
2017-01-29T12:59:08.029Z,5.91
2017-01-29T13:00:07.581Z,5.94
2017-01-29T13:01:08.179Z,5.95